Time;durP1;ratioP1;P1;durP2;ratioP2;P2;SDS_P1;SDS_P2;PMS_P1;PMS_P2;Temp;Humidity;BMP_temperature;BMP_pressure;BME280_temperature;BME280_humidity;BME280_pressure;Samples;Min_cycle;Max_cycle;Signal;HPM_P1;HPM_P2
2024/03/31 00:02:02;;;;;;;;;;;17.00;48.70;;;;;;5052988;28;19914;-73
2024/03/31 00:04:27;;;;;;;;;;;16.80;49.40;;;;;;5071154;28;19916;-74
2024/03/31 00:06:53;;;;;;;;;;;16.70;49.20;;;;;;5071168;28;20550;-73
2024/03/31 00:09:18;;;;;;;;;;;16.60;49.60;;;;;;5053203;28;20694;-73
2024/03/31 00:11:44;;;;;;;;;;;16.60;50.00;;;;;;5053151;28;20280;-74
2024/03/31 00:14:09;;;;;;;;;;;16.50;50.30;;;;;;5071179;28;20440;-73
2024/03/31 00:16:35;;;;;;;;;;;16.40;51.40;;;;;;5071047;28;19904;-74
2024/03/31 00:19:00;;;;;;;;;;;16.40;51.10;;;;;;5052120;28;19951;-74
2024/03/31 00:21:26;;;;;;;;;;;16.30;51.20;;;;;;5070874;28;19936;-72
2024/03/31 00:23:52;;;;;;;;;;;16.30;51.60;;;;;;5052934;28;19998;-72
2024/03/31 00:26:18;;;;;;;;;;;16.30;51.80;;;;;;5070588;28;20385;-74
2024/03/31 00:28:44;;;;;;;;;;;16.20;52.40;;;;;;5064646;28;19962;-73
2024/03/31 00:31:09;;;;;;;;;;;16.10;52.30;;;;;;5070494;28;20353;-74
2024/03/31 00:33:35;;;;;;;;;;;16.10;52.80;;;;;;5070329;28;19958;-73
2024/03/31 00:36:01;;;;;;;;;;;16.00;52.70;;;;;;5070488;28;19961;-73
2024/03/31 00:38:26;;;;;;;;;;;15.90;53.50;;;;;;5069847;28;19951;-73
2024/03/31 00:40:52;;;;;;;;;;;15.80;53.70;;;;;;5070536;28;19918;-74
2024/03/31 00:43:17;;;;;;;;;;;15.80;54.90;;;;;;5069879;28;19916;-74
2024/03/31 00:45:43;;;;;;;;;;;15.70;54.30;;;;;;5070599;28;19939;-73
2024/03/31 00:48:09;;;;;;;;;;;15.60;54.50;;;;;;5070577;28;19909;-73
2024/03/31 00:50:34;;;;;;;;;;;15.50;55.20;;;;;;5070398;28;19931;-74
2024/03/31 00:53:00;;;;;;;;;;;15.50;55.60;;;;;;5069977;28;19908;-72
2024/03/31 00:55:26;;;;;;;;;;;15.40;55.90;;;;;;5070472;28;19983;-73
2024/03/31 00:57:51;;;;;;;;;;;15.30;57.10;;;;;;5070551;28;19908;-72
2024/03/31 01:00:17;;;;;;;;;;;15.30;57.00;;;;;;5069868;28;19909;-74
2024/03/31 01:02:43;;;;;;;;;;;15.20;57.10;;;;;;5052526;28;19908;-74
2024/03/31 01:05:08;;;;;;;;;;;15.10;58.60;;;;;;5069642;28;19924;-73
2024/03/31 01:07:34;;;;;;;;;;;15.00;58.80;;;;;;5069987;28;19943;-74
2024/03/31 01:10:00;;;;;;;;;;;14.80;59.50;;;;;;5069777;28;19911;-73
2024/03/31 01:12:25;;;;;;;;;;;14.70;60.80;;;;;;5069840;28;19913;-74
2024/03/31 01:14:51;;;;;;;;;;;14.60;61.80;;;;;;5051820;28;20384;-73
2024/03/31 01:17:16;;;;;;;;;;;14.60;61.80;;;;;;5069732;28;19956;-76
2024/03/31 01:19:42;;;;;;;;;;;14.50;61.70;;;;;;5069683;28;20017;-73
2024/03/31 01:22:08;;;;;;;;;;;14.50;61.30;;;;;;5069963;28;19912;-72
2024/03/31 01:24:33;;;;;;;;;;;14.60;61.50;;;;;;5069871;28;19978;-74
2024/03/31 01:26:59;;;;;;;;;;;14.70;60.50;;;;;;5051637;28;19951;-74
2024/03/31 01:29:24;;;;;;;;;;;14.90;60.80;;;;;;5051704;28;20023;-73
2024/03/31 01:31:50;;;;;;;;;;;14.90;60.60;;;;;;5069774;28;20003;-73
2024/03/31 01:34:16;;;;;;;;;;;14.80;61.00;;;;;;5069615;28;19911;-73
2024/03/31 01:36:41;;;;;;;;;;;14.70;62.20;;;;;;5051596;28;19915;-73
2024/03/31 01:39:07;;;;;;;;;;;14.60;63.50;;;;;;5068287;28;20428;-71
2024/03/31 01:41:32;;;;;;;;;;;14.50;63.80;;;;;;5089870;28;19904;-75
2024/03/31 01:43:58;;;;;;;;;;;14.50;63.10;;;;;;5089754;28;19916;-73
2024/03/31 01:46:23;;;;;;;;;;;14.60;62.90;;;;;;5088847;28;19908;-73
2024/03/31 01:48:49;;;;;;;;;;;14.60;63.10;;;;;;5088425;28;19904;-73
2024/03/31 01:51:14;;;;;;;;;;;14.60;63.80;;;;;;5089837;28;19904;-73
2024/03/31 01:53:40;;;;;;;;;;;14.70;63.10;;;;;;5089716;28;19904;-73
2024/03/31 01:56:06;;;;;;;;;;;14.70;63.10;;;;;;5088267;28;19908;-73
2024/03/31 01:58:31;;;;;;;;;;;14.60;63.50;;;;;;5089605;28;19908;-73
2024/03/31 02:00:57;;;;;;;;;;;14.70;64.10;;;;;;5088028;28;19908;-72
2024/03/31 02:03:22;;;;;;;;;;;14.60;64.40;;;;;;5088120;28;20273;-72
2024/03/31 02:05:48;;;;;;;;;;;14.50;65.10;;;;;;5089679;28;19919;-73
2024/03/31 02:08:13;;;;;;;;;;;14.40;65.80;;;;;;5089563;28;20015;-72
2024/03/31 02:10:39;;;;;;;;;;;14.30;67.20;;;;;;5089594;28;19954;-73
2024/03/31 02:13:04;;;;;;;;;;;14.20;68.20;;;;;;5089370;28;19904;-72
2024/03/31 02:15:30;;;;;;;;;;;14.10;69.80;;;;;;5089494;28;20393;-73
2024/03/31 02:17:55;;;;;;;;;;;14.00;70.70;;;;;;5089376;28;19904;-73
2024/03/31 02:20:21;;;;;;;;;;;14.00;71.90;;;;;;5089091;28;19915;-73
2024/03/31 02:22:46;;;;;;;;;;;13.90;72.90;;;;;;5089253;28;19927;-74
2024/03/31 02:25:12;;;;;;;;;;;13.80;74.10;;;;;;5089443;28;19920;-74
2024/03/31 02:27:37;;;;;;;;;;;13.80;74.70;;;;;;5089259;28;19922;-74
2024/03/31 02:30:03;;;;;;;;;;;13.80;77.00;;;;;;5089324;28;19919;-74
2024/03/31 02:32:29;;;;;;;;;;;13.70;77.30;;;;;;5089569;28;20406;-74
2024/03/31 02:34:54;;;;;;;;;;;13.70;78.30;;;;;;5088042;28;20355;-73
2024/03/31 02:37:20;;;;;;;;;;;13.60;79.40;;;;;;5089528;28;20395;-74
2024/03/31 02:39:45;;;;;;;;;;;13.60;80.30;;;;;;5073909;28;19958;-73
2024/03/31 02:42:11;;;;;;;;;;;13.50;82.20;;;;;;5071367;28;19908;-74
2024/03/31 02:44:36;;;;;;;;;;;13.50;82.60;;;;;;5054973;28;19916;-73
2024/03/31 02:47:02;;;;;;;;;;;13.50;82.40;;;;;;5054749;28;19908;-74
2024/03/31 02:49:28;;;;;;;;;;;13.50;82.00;;;;;;5072483;28;20424;-74
2024/03/31 02:51:53;;;;;;;;;;;13.50;82.70;;;;;;5072609;28;19912;-73
2024/03/31 02:54:19;;;;;;;;;;;13.50;83.50;;;;;;5072591;28;19904;-73
2024/03/31 02:56:44;;;;;;;;;;;13.50;83.80;;;;;;5054354;28;19908;-72
2024/03/31 02:59:10;;;;;;;;;;;13.40;84.10;;;;;;5072542;28;19962;-75
2024/03/31 03:01:35;;;;;;;;;;;13.40;85.40;;;;;;5072449;28;20430;-74
2024/03/31 03:04:01;;;;;;;;;;;13.40;84.90;;;;;;5054352;28;20296;-74
2024/03/31 03:06:27;;;;;;;;;;;13.30;86.30;;;;;;5054441;28;20422;-74
2024/03/31 03:08:52;;;;;;;;;;;13.30;87.10;;;;;;5054217;28;19904;-74
2024/03/31 03:11:18;;;;;;;;;;;13.20;87.30;;;;;;5054166;28;20295;-74
2024/03/31 03:13:44;;;;;;;;;;;13.20;86.10;;;;;;5054227;28;19919;-74
2024/03/31 03:16:10;;;;;;;;;;;13.20;85.30;;;;;;5054153;28;19918;-73
2024/03/31 03:18:35;;;;;;;;;;;13.20;84.60;;;;;;5072184;28;20013;-74
2024/03/31 03:21:01;;;;;;;;;;;13.20;86.20;;;;;;5072133;28;20002;-74
2024/03/31 03:23:26;;;;;;;;;;;13.20;87.70;;;;;;5071555;28;19915;-73
2024/03/31 03:25:55;;;;;;;;;;;13.10;88.00;;;;;;5072131;28;20350;-73
2024/03/31 03:28:21;;;;;;;;;;;13.20;88.00;;;;;;5072003;28;19904;-74
2024/03/31 03:30:47;;;;;;;;;;;13.20;88.40;;;;;;5053605;28;20346;-74
2024/03/31 03:33:13;;;;;;;;;;;13.20;89.00;;;;;;5071829;28;19905;-73
2024/03/31 03:35:39;;;;;;;;;;;13.20;89.70;;;;;;5071810;28;19939;-74
2024/03/31 03:38:04;;;;;;;;;;;13.30;89.60;;;;;;5071686;28;19951;-73
2024/03/31 03:40:30;;;;;;;;;;;13.40;89.60;;;;;;5071379;28;19943;-74
2024/03/31 03:42:55;;;;;;;;;;;13.60;89.70;;;;;;5070624;28;19909;-74
2024/03/31 03:45:21;;;;;;;;;;;13.60;90.00;;;;;;5071342;28;19920;-73
2024/03/31 03:47:46;;;;;;;;;;;13.50;90.40;;;;;;5070223;28;19908;-74
2024/03/31 03:50:12;;;;;;;;;;;13.60;90.20;;;;;;5069647;28;19904;-73
2024/03/31 03:52:37;;;;;;;;;;;13.60;90.30;;;;;;5068797;28;20412;-73
2024/03/31 03:55:03;;;;;;;;;;;13.60;90.50;;;;;;5051557;28;19905;-74
2024/03/31 03:57:29;;;;;;;;;;;13.50;90.60;;;;;;5069446;28;19908;-74
2024/03/31 03:59:54;;;;;;;;;;;13.70;90.30;;;;;;5069559;28;19904;-74
2024/03/31 04:02:20;;;;;;;;;;;13.70;90.50;;;;;;5069344;28;19909;-74
2024/03/31 04:04:45;;;;;;;;;;;13.70;90.60;;;;;;5069366;28;20009;-74
2024/03/31 04:07:11;;;;;;;;;;;13.70;90.70;;;;;;5069503;28;19915;-73
2024/03/31 04:09:36;;;;;;;;;;;13.70;90.60;;;;;;5069447;28;19908;-74
2024/03/31 04:12:02;;;;;;;;;;;13.70;90.60;;;;;;5051819;28;19915;-73
2024/03/31 04:14:27;;;;;;;;;;;13.80;90.50;;;;;;5051906;28;19904;-73
2024/03/31 04:16:53;;;;;;;;;;;13.80;90.40;;;;;;5052335;28;20633;-74
2024/03/31 04:19:19;;;;;;;;;;;13.70;90.50;;;;;;5070824;28;20300;-74
2024/03/31 04:21:45;;;;;;;;;;;13.70;90.70;;;;;;5071083;28;19912;-73
2024/03/31 04:24:10;;;;;;;;;;;13.70;90.80;;;;;;5070690;28;20003;-73
2024/03/31 04:26:36;;;;;;;;;;;13.70;91.00;;;;;;5070697;28;20291;-74
2024/03/31 04:29:01;;;;;;;;;;;13.60;91.50;;;;;;5052854;28;19904;-74
2024/03/31 04:31:27;;;;;;;;;;;13.50;92.20;;;;;;5052555;28;19909;-74
2024/03/31 04:33:53;;;;;;;;;;;13.40;92.90;;;;;;5070582;28;20004;-74
2024/03/31 04:36:18;;;;;;;;;;;13.40;93.10;;;;;;5070453;28;19911;-74
2024/03/31 04:38:44;;;;;;;;;;;13.30;93.10;;;;;;5070225;28;19916;-74
2024/03/31 04:41:09;;;;;;;;;;;13.20;93.40;;;;;;5070463;28;20273;-74
2024/03/31 04:43:35;;;;;;;;;;;13.10;93.90;;;;;;5052004;28;20336;-74
2024/03/31 04:46:04;;;;;;;;;;;13.10;94.10;;;;;;5052531;28;19962;-73
2024/03/31 04:48:30;;;;;;;;;;;13.10;93.90;;;;;;5070270;28;19904;-73
2024/03/31 04:50:56;;;;;;;;;;;13.10;93.90;;;;;;5070271;28;19914;-73
2024/03/31 04:53:21;;;;;;;;;;;13.00;93.80;;;;;;5052569;28;20388;-73
2024/03/31 04:55:47;;;;;;;;;;;13.10;93.80;;;;;;5070150;28;19911;-73
2024/03/31 04:58:12;;;;;;;;;;;13.20;93.50;;;;;;5070083;28;19915;-72
2024/03/31 05:00:38;;;;;;;;;;;13.20;93.60;;;;;;5070122;28;19987;-73
2024/03/31 05:03:04;;;;;;;;;;;13.20;93.50;;;;;;5052115;28;19913;-73
2024/03/31 05:05:29;;;;;;;;;;;13.20;92.80;;;;;;5069592;28;19966;-74
2024/03/31 05:07:55;;;;;;;;;;;13.20;92.60;;;;;;5069605;28;19950;-74
2024/03/31 05:10:20;;;;;;;;;;;13.20;92.80;;;;;;5070004;28;19957;-74
2024/03/31 05:12:46;;;;;;;;;;;13.20;92.50;;;;;;5052187;28;19908;-73
2024/03/31 05:15:11;;;;;;;;;;;13.30;92.50;;;;;;5051923;28;19912;-74
2024/03/31 05:17:37;;;;;;;;;;;13.40;91.20;;;;;;5069726;28;19915;-73
2024/03/31 05:20:02;;;;;;;;;;;13.50;90.20;;;;;;5069921;28;19954;-74
2024/03/31 05:22:28;;;;;;;;;;;13.50;90.20;;;;;;5069920;28;19908;-74
2024/03/31 05:24:54;;;;;;;;;;;13.60;90.00;;;;;;5051718;28;19927;-74
2024/03/31 05:27:20;;;;;;;;;;;13.60;89.80;;;;;;5069813;28;19908;-73
2024/03/31 05:29:45;;;;;;;;;;;13.70;87.90;;;;;;5052084;28;20418;-73
2024/03/31 05:32:11;;;;;;;;;;;13.80;86.70;;;;;;5070004;28;19915;-73
2024/03/31 05:34:37;;;;;;;;;;;13.90;85.70;;;;;;5070044;28;20617;-74
2024/03/31 05:37:03;;;;;;;;;;;13.90;84.90;;;;;;5069624;28;19940;-74
2024/03/31 05:39:28;;;;;;;;;;;14.00;84.10;;;;;;5069496;28;20356;-74
2024/03/31 05:41:54;;;;;;;;;;;14.20;82.90;;;;;;5052063;28;19927;-73
2024/03/31 05:44:19;;;;;;;;;;;14.20;81.90;;;;;;5069510;28;19919;-74
2024/03/31 05:46:46;;;;;;;;;;;14.30;81.00;;;;;;5069646;28;19914;-74
2024/03/31 05:49:11;;;;;;;;;;;14.40;80.50;;;;;;5051674;28;19954;-73
2024/03/31 05:51:37;;;;;;;;;;;14.50;79.90;;;;;;5069566;28;19908;-72
2024/03/31 05:54:02;;;;;;;;;;;14.50;80.10;;;;;;5051864;28;19961;-73
2024/03/31 05:56:28;;;;;;;;;;;14.60;79.10;;;;;;5069623;28;19908;-74
2024/03/31 05:58:53;;;;;;;;;;;14.70;76.70;;;;;;5069424;28;20458;-73
2024/03/31 06:01:19;;;;;;;;;;;14.70;76.50;;;;;;5069452;28;20424;-73
2024/03/31 06:03:45;;;;;;;;;;;14.90;79.20;;;;;;5069441;28;19912;-74
2024/03/31 06:06:10;;;;;;;;;;;14.90;81.20;;;;;;5051414;28;20506;-74
2024/03/31 06:08:36;;;;;;;;;;;15.00;79.00;;;;;;5051406;28;19951;-74
2024/03/31 06:11:01;;;;;;;;;;;15.10;75.30;;;;;;5069339;28;20416;-73
2024/03/31 06:13:27;;;;;;;;;;;15.20;74.50;;;;;;5050905;28;19904;-74
2024/03/31 06:15:52;;;;;;;;;;;15.30;73.40;;;;;;5069571;28;19931;-74
2024/03/31 06:18:18;;;;;;;;;;;15.40;71.30;;;;;;5073062;28;19958;-73
2024/03/31 06:20:43;;;;;;;;;;;15.40;71.50;;;;;;5055449;28;19920;-73
2024/03/31 06:23:09;;;;;;;;;;;15.50;76.00;;;;;;5073303;28;19911;-73
2024/03/31 06:25:35;;;;;;;;;;;15.60;73.60;;;;;;5055026;28;19917;-73
2024/03/31 06:28:00;;;;;;;;;;;15.70;73.10;;;;;;5072870;28;19905;-74
2024/03/31 06:30:26;;;;;;;;;;;15.80;70.40;;;;;;5073120;28;19908;-74
2024/03/31 06:32:51;;;;;;;;;;;15.80;70.30;;;;;;5072880;28;20090;-74
2024/03/31 06:35:17;;;;;;;;;;;15.80;71.00;;;;;;5072914;28;19931;-74
2024/03/31 06:37:42;;;;;;;;;;;15.90;72.00;;;;;;5072737;28;19916;-74
2024/03/31 06:40:08;;;;;;;;;;;16.00;73.50;;;;;;5072676;28;19920;-74
2024/03/31 06:42:33;;;;;;;;;;;16.20;68.90;;;;;;5072847;28;20403;-74
2024/03/31 06:44:59;;;;;;;;;;;16.20;69.50;;;;;;5054677;28;20118;-74
2024/03/31 06:47:25;;;;;;;;;;;16.40;67.20;;;;;;5072365;28;19995;-74
2024/03/31 06:49:50;;;;;;;;;;;16.40;67.30;;;;;;5072608;28;19943;-74
2024/03/31 06:52:16;;;;;;;;;;;16.50;66.40;;;;;;5072606;28;20353;-74
2024/03/31 06:54:41;;;;;;;;;;;16.60;68.70;;;;;;5054524;28;20374;-74
2024/03/31 06:57:07;;;;;;;;;;;16.60;65.20;;;;;;5072300;28;19904;-73
2024/03/31 06:59:32;;;;;;;;;;;16.60;64.60;;;;;;5054749;28;20373;-74
2024/03/31 07:01:58;;;;;;;;;;;16.70;62.10;;;;;;5054423;28;19905;-73
2024/03/31 07:04:23;;;;;;;;;;;16.80;64.00;;;;;;5072346;28;19955;-74
2024/03/31 07:06:49;;;;;;;;;;;16.90;61.70;;;;;;5072721;28;20388;-73
2024/03/31 07:09:16;;;;;;;;;;;17.10;61.50;;;;;;5054448;28;19961;-74
2024/03/31 07:11:41;;;;;;;;;;;17.20;60.40;;;;;;5054164;28;20005;-74
2024/03/31 07:14:07;;;;;;;;;;;17.40;57.00;;;;;;5054329;28;20379;-73
2024/03/31 07:16:32;;;;;;;;;;;17.60;55.50;;;;;;5072246;28;19904;-74
2024/03/31 07:18:58;;;;;;;;;;;17.70;54.40;;;;;;5071789;28;19915;-74
2024/03/31 07:21:23;;;;;;;;;;;17.90;52.60;;;;;;5071907;28;19904;-74
2024/03/31 07:23:49;;;;;;;;;;;18.00;50.70;;;;;;5071956;28;20300;-74
2024/03/31 07:26:14;;;;;;;;;;;18.10;51.00;;;;;;5071612;28;20399;-74
2024/03/31 07:28:40;;;;;;;;;;;18.30;49.90;;;;;;5071583;28;19911;-73
2024/03/31 07:31:05;;;;;;;;;;;18.60;48.20;;;;;;5071817;28;20484;-74
2024/03/31 07:33:31;;;;;;;;;;;18.80;47.90;;;;;;5054137;28;19947;-74
2024/03/31 07:35:58;;;;;;;;;;;19.00;47.30;;;;;;5071946;28;20000;-73
2024/03/31 07:38:23;;;;;;;;;;;19.20;40.80;;;;;;5071581;28;20384;-74
2024/03/31 07:40:49;;;;;;;;;;;19.50;42.70;;;;;;5071635;28;19954;-73
2024/03/31 07:43:20;;;;;;;;;;;19.70;41.90;;;;;;5071679;28;19911;-73
2024/03/31 07:45:45;;;;;;;;;;;19.90;40.00;;;;;;5071777;28;19908;-74
2024/03/31 07:48:11;;;;;;;;;;;20.00;35.90;;;;;;5071599;28;19904;-74
2024/03/31 07:50:37;;;;;;;;;;;20.10;35.50;;;;;;5071639;28;20503;-74
2024/03/31 07:53:02;;;;;;;;;;;20.30;33.00;;;;;;5071326;28;20007;-74
2024/03/31 07:55:28;;;;;;;;;;;20.40;31.20;;;;;;5071359;28;19971;-74
2024/03/31 07:57:53;;;;;;;;;;;20.40;31.20;;;;;;5071397;28;19910;-76
2024/03/31 08:00:19;;;;;;;;;;;20.50;30.70;;;;;;5071060;28;19908;-73
2024/03/31 08:02:44;;;;;;;;;;;20.50;30.40;;;;;;5071395;28;19957;-73
2024/03/31 08:05:10;;;;;;;;;;;20.50;30.80;;;;;;5071272;28;20373;-73
2024/03/31 08:07:35;;;;;;;;;;;20.30;30.90;;;;;;5071473;28;19908;-73
2024/03/31 08:10:03;;;;;;;;;;;20.30;30.00;;;;;;5071227;28;19912;-74
2024/03/31 08:12:28;;;;;;;;;;;20.20;29.00;;;;;;5071202;28;20008;-73
2024/03/31 08:14:54;;;;;;;;;;;20.00;29.20;;;;;;5070713;28;20007;-73
2024/03/31 08:17:19;;;;;;;;;;;19.90;28.50;;;;;;5071004;28;19908;-73
2024/03/31 08:19:45;;;;;;;;;;;19.80;28.50;;;;;;5071255;28;19904;-73
2024/03/31 08:22:10;;;;;;;;;;;19.70;29.80;;;;;;5053234;28;19958;-74
2024/03/31 08:24:36;;;;;;;;;;;19.90;30.00;;;;;;5070966;28;19982;-74
2024/03/31 08:27:02;;;;;;;;;;;20.10;30.80;;;;;;5052928;28;19912;-74
2024/03/31 08:29:27;;;;;;;;;;;20.40;27.70;;;;;;5053162;28;19908;-73
2024/03/31 08:31:53;;;;;;;;;;;20.80;27.70;;;;;;5070870;28;19909;-73
2024/03/31 08:34:18;;;;;;;;;;;21.40;27.40;;;;;;5052890;28;19914;-74
2024/03/31 08:36:44;;;;;;;;;;;22.10;26.50;;;;;;5052939;28;20300;-73
2024/03/31 08:39:09;;;;;;;;;;;22.60;25.50;;;;;;5069582;28;20388;-76
2024/03/31 08:41:37;;;;;;;;;;;23.20;24.70;;;;;;5070502;28;20345;-76
2024/03/31 08:44:04;;;;;;;;;;;23.80;24.40;;;;;;5070362;28;19930;-73
2024/03/31 08:46:30;;;;;;;;;;;24.40;23.30;;;;;;5070606;28;20614;-73
2024/03/31 08:48:55;;;;;;;;;;;24.90;21.80;;;;;;5070089;28;20002;-73
2024/03/31 08:51:21;;;;;;;;;;;25.10;21.00;;;;;;5070364;28;20395;-74
2024/03/31 08:53:47;;;;;;;;;;;25.30;20.70;;;;;;5070297;28;20381;-73
2024/03/31 08:56:12;;;;;;;;;;;25.50;19.40;;;;;;5070110;28;19908;-73
2024/03/31 08:58:39;;;;;;;;;;;25.50;18.30;;;;;;5070251;28;19969;-74
2024/03/31 09:01:06;;;;;;;;;;;25.70;19.30;;;;;;5070276;28;19950;-73
2024/03/31 09:03:31;;;;;;;;;;;25.90;20.70;;;;;;5070109;28;19904;-73
2024/03/31 09:05:57;;;;;;;;;;;26.20;18.60;;;;;;5069999;28;19912;-73
2024/03/31 09:08:23;;;;;;;;;;;26.20;18.60;;;;;;5069809;28;19911;-73
2024/03/31 09:10:48;;;;;;;;;;;26.40;19.40;;;;;;5069879;28;19912;-74
2024/03/31 09:13:14;;;;;;;;;;;26.50;18.90;;;;;;5052386;28;19908;-73
2024/03/31 09:15:40;;;;;;;;;;;26.80;19.30;;;;;;5051939;28;19942;-72
2024/03/31 09:18:06;;;;;;;;;;;27.00;18.70;;;;;;5052046;28;19909;-73
2024/03/31 09:20:31;;;;;;;;;;;27.00;19.10;;;;;;5070423;28;20428;-73
2024/03/31 09:22:58;;;;;;;;;;;27.20;17.50;;;;;;5069933;28;20407;-74
2024/03/31 09:25:25;;;;;;;;;;;27.10;17.80;;;;;;5069822;28;19923;-74
2024/03/31 09:27:52;;;;;;;;;;;26.90;18.50;;;;;;5069862;28;20300;-74
2024/03/31 09:30:17;;;;;;;;;;;26.80;19.50;;;;;;5069903;28;19915;-74
2024/03/31 09:32:43;;;;;;;;;;;26.80;18.40;;;;;;5069772;28;19904;-75
2024/03/31 09:35:09;;;;;;;;;;;26.60;19.20;;;;;;5051750;28;19909;-74
2024/03/31 09:37:39;;;;;;;;;;;26.60;18.70;;;;;;5069659;28;20003;-74
2024/03/31 09:40:05;;;;;;;;;;;26.40;19.20;;;;;;5069681;28;19924;-74
2024/03/31 09:42:31;;;;;;;;;;;26.50;20.30;;;;;;5051722;28;19915;-74
2024/03/31 09:44:56;;;;;;;;;;;26.50;20.30;;;;;;5069548;28;19916;-74
2024/03/31 09:47:22;;;;;;;;;;;26.60;20.00;;;;;;5051643;28;19908;-73
2024/03/31 09:49:54;;;;;;;;;;;26.60;20.50;;;;;;5069786;28;20384;-73
2024/03/31 09:52:23;;;;;;;;;;;26.40;19.70;;;;;;5072149;28;19926;-74
2024/03/31 09:54:53;;;;;;;;;;;26.20;20.40;;;;;;5073911;28;19908;-73
2024/03/31 09:57:22;;;;;;;;;;;26.00;21.30;;;;;;5073630;28;19956;-74
2024/03/31 09:59:54;;;;;;;;;;;26.20;21.70;;;;;;5055583;28;19965;-74
2024/03/31 10:02:20;;;;;;;;;;;26.30;21.20;;;;;;5055539;28;20577;-74
2024/03/31 10:04:49;;;;;;;;;;;26.40;22.10;;;;;;5055024;28;19916;-74
2024/03/31 10:07:17;;;;;;;;;;;26.40;21.10;;;;;;5073435;28;19950;-74
2024/03/31 10:09:42;;;;;;;;;;;26.40;21.40;;;;;;5055355;28;19911;-74
2024/03/31 10:12:09;;;;;;;;;;;26.20;21.60;;;;;;5055269;28;19904;-74
2024/03/31 10:14:35;;;;;;;;;;;25.80;21.30;;;;;;5073390;28;19919;-74
2024/03/31 10:17:01;;;;;;;;;;;25.50;21.70;;;;;;5055247;28;19914;-74
2024/03/31 10:19:28;;;;;;;;;;;25.70;22.30;;;;;;5072821;28;20006;-75
2024/03/31 10:21:55;;;;;;;;;;;26.00;22.90;;;;;;5073313;28;19991;-74
2024/03/31 10:24:21;;;;;;;;;;;26.40;22.30;;;;;;5072917;28;19916;-74
2024/03/31 10:26:49;;;;;;;;;;;26.70;21.70;;;;;;5072973;28;19952;-72
2024/03/31 10:29:16;;;;;;;;;;;26.80;20.90;;;;;;5073148;28;20372;-74
2024/03/31 10:31:41;;;;;;;;;;;26.60;20.90;;;;;;5072879;28;19947;-73
2024/03/31 10:34:07;;;;;;;;;;;26.40;20.70;;;;;;5072565;28;19943;-74
2024/03/31 10:36:33;;;;;;;;;;;26.20;21.40;;;;;;5055112;28;19904;-73
2024/03/31 10:38:59;;;;;;;;;;;26.00;22.80;;;;;;5072452;28;19927;-74
2024/03/31 10:41:24;;;;;;;;;;;26.10;23.10;;;;;;5072799;28;20284;-75
2024/03/31 10:43:50;;;;;;;;;;;25.60;21.80;;;;;;5072847;28;20388;-74
2024/03/31 10:46:16;;;;;;;;;;;25.30;22.60;;;;;;5072711;28;19995;-73
2024/03/31 10:48:42;;;;;;;;;;;25.10;23.70;;;;;;5072486;28;19905;-74
2024/03/31 10:51:08;;;;;;;;;;;24.60;23.90;;;;;;5072772;28;19908;-74
2024/03/31 10:53:33;;;;;;;;;;;24.20;24.70;;;;;;5072633;28;19912;-73
2024/03/31 10:56:02;;;;;;;;;;;24.00;26.20;;;;;;5072187;28;19961;-74
2024/03/31 10:58:28;;;;;;;;;;;23.90;26.10;;;;;;5072756;28;19931;-75
2024/03/31 11:00:54;;;;;;;;;;;23.70;26.20;;;;;;5072756;28;20378;-74
2024/03/31 11:03:25;;;;;;;;;;;23.60;27.10;;;;;;5071922;28;19916;-74
2024/03/31 11:05:51;;;;;;;;;;;23.70;26.40;;;;;;5072501;28;19923;-74
2024/03/31 11:08:17;;;;;;;;;;;23.70;27.90;;;;;;5072292;28;19905;-73
2024/03/31 11:10:43;;;;;;;;;;;23.70;27.30;;;;;;5072548;28;19904;-74
2024/03/31 11:13:08;;;;;;;;;;;23.60;28.10;;;;;;5054229;28;19909;-73
2024/03/31 11:15:34;;;;;;;;;;;23.40;26.60;;;;;;5072168;28;20001;-74
2024/03/31 11:18:00;;;;;;;;;;;23.30;27.40;;;;;;5072098;28;19912;-74
2024/03/31 11:20:25;;;;;;;;;;;23.30;26.00;;;;;;5072241;28;20340;-74
2024/03/31 11:22:53;;;;;;;;;;;23.20;26.10;;;;;;5072068;28;19908;-74
2024/03/31 11:25:19;;;;;;;;;;;23.20;27.50;;;;;;5071814;28;19923;-74
2024/03/31 11:27:45;;;;;;;;;;;23.20;28.30;;;;;;5072023;28;20034;-73
2024/03/31 11:30:10;;;;;;;;;;;23.20;27.70;;;;;;5072161;28;20423;-74
2024/03/31 11:32:38;;;;;;;;;;;23.20;28.20;;;;;;5071902;28;20339;-74
2024/03/31 11:35:07;;;;;;;;;;;23.30;28.60;;;;;;5071942;28;20384;-74
2024/03/31 11:37:32;;;;;;;;;;;23.30;28.20;;;;;;5071759;28;19958;-74
2024/03/31 11:39:58;;;;;;;;;;;23.30;27.70;;;;;;5071559;28;20408;-74
2024/03/31 11:42:25;;;;;;;;;;;23.30;27.80;;;;;;5071860;28;19909;-73
2024/03/31 11:44:51;;;;;;;;;;;23.20;27.30;;;;;;5071956;28;19912;-73
2024/03/31 11:47:17;;;;;;;;;;;23.30;27.70;;;;;;5053681;28;19915;-75
2024/03/31 11:49:42;;;;;;;;;;;23.30;27.20;;;;;;5053857;28;19908;-74
2024/03/31 11:52:08;;;;;;;;;;;23.40;27.60;;;;;;5071548;28;19908;-74
2024/03/31 11:54:34;;;;;;;;;;;23.50;27.50;;;;;;5071784;28;20296;-73
2024/03/31 11:57:02;;;;;;;;;;;23.50;27.80;;;;;;5071328;28;19908;-74
2024/03/31 11:59:27;;;;;;;;;;;23.80;27.20;;;;;;5053468;28;19908;-74
2024/03/31 12:01:57;;;;;;;;;;;23.90;26.70;;;;;;5053456;28;20452;-75
2024/03/31 12:04:22;;;;;;;;;;;24.10;26.70;;;;;;5071292;28;19965;-73
2024/03/31 12:06:48;;;;;;;;;;;24.40;24.40;;;;;;5052914;28;19912;-75
2024/03/31 12:09:14;;;;;;;;;;;24.50;23.60;;;;;;5071577;28;19911;-75
2024/03/31 12:11:43;;;;;;;;;;;24.50;24.10;;;;;;5071184;28;19912;-75
2024/03/31 12:14:10;;;;;;;;;;;24.70;24.30;;;;;;5052123;28;19904;-74
2024/03/31 12:16:37;;;;;;;;;;;24.90;22.80;;;;;;5053089;28;19912;-74
2024/03/31 12:19:03;;;;;;;;;;;25.10;23.40;;;;;;5053345;28;20292;-73
2024/03/31 12:21:29;;;;;;;;;;;25.20;22.70;;;;;;5052603;28;19915;-74
2024/03/31 12:23:55;;;;;;;;;;;25.30;21.90;;;;;;5070737;28;19924;-74
2024/03/31 12:26:24;;;;;;;;;;;25.30;21.50;;;;;;5070691;28;20281;-74
2024/03/31 12:28:50;;;;;;;;;;;25.40;22.70;;;;;;5070737;28;19904;-73
2024/03/31 12:31:20;;;;;;;;;;;25.40;22.10;;;;;;5070829;28;20308;-74
2024/03/31 12:33:46;;;;;;;;;;;25.60;21.50;;;;;;5052765;28;19908;-73
2024/03/31 12:36:13;;;;;;;;;;;25.70;21.30;;;;;;5070722;28;19905;-74
2024/03/31 12:38:39;;;;;;;;;;;25.80;21.30;;;;;;5070440;28;19982;-72
2024/03/31 12:41:05;;;;;;;;;;;25.80;21.30;;;;;;5070615;28;19966;-74
2024/03/31 12:43:30;;;;;;;;;;;25.80;21.00;;;;;;5070449;28;19912;-74
2024/03/31 12:45:56;;;;;;;;;;;25.80;21.40;;;;;;5052287;28;19919;-73
2024/03/31 12:48:22;;;;;;;;;;;25.90;20.80;;;;;;5070530;28;20351;-73
2024/03/31 12:50:51;;;;;;;;;;;25.60;20.00;;;;;;5070097;28;19922;-74
2024/03/31 12:53:17;;;;;;;;;;;25.40;20.40;;;;;;5052476;28;19909;-74
2024/03/31 12:55:43;;;;;;;;;;;25.20;21.30;;;;;;5070117;28;20003;-73
2024/03/31 12:58:09;;;;;;;;;;;25.00;20.60;;;;;;5070039;28;19904;-74
2024/03/31 13:00:41;;;;;;;;;;;24.90;20.60;;;;;;5070279;28;19904;-73
2024/03/31 13:03:10;;;;;;;;;;;25.00;21.00;;;;;;5069882;28;19909;-73
2024/03/31 13:05:36;;;;;;;;;;;25.00;21.30;;;;;;5070096;28;19963;-72
2024/03/31 13:08:05;;;;;;;;;;;25.10;21.70;;;;;;5070112;28;19947;-74
2024/03/31 13:10:31;;;;;;;;;;;25.10;21.00;;;;;;5070059;28;19943;-73
2024/03/31 13:12:57;;;;;;;;;;;25.10;20.90;;;;;;5069956;28;19908;-73
2024/03/31 13:15:22;;;;;;;;;;;25.00;20.80;;;;;;5051944;28;19908;-74
2024/03/31 13:17:48;;;;;;;;;;;25.00;21.10;;;;;;5051850;28;20250;-72
2024/03/31 13:20:13;;;;;;;;;;;24.90;20.60;;;;;;5051847;28;20440;-73
2024/03/31 13:22:39;;;;;;;;;;;24.90;21.90;;;;;;5069920;28;19947;-73
2024/03/31 13:25:04;;;;;;;;;;;24.80;21.60;;;;;;5069715;28;20019;-74
2024/03/31 13:27:30;;;;;;;;;;;24.80;21.20;;;;;;5069948;28;19916;-74
2024/03/31 13:29:55;;;;;;;;;;;24.90;22.00;;;;;;5069966;28;19915;-73
2024/03/31 13:32:21;;;;;;;;;;;24.90;21.70;;;;;;5069848;28;19912;-73
2024/03/31 13:34:46;;;;;;;;;;;24.90;20.70;;;;;;5069780;28;19914;-73
2024/03/31 13:37:13;;;;;;;;;;;25.00;20.20;;;;;;5069824;28;19985;-73
2024/03/31 13:39:38;;;;;;;;;;;25.00;20.80;;;;;;5076700;28;19920;-73
2024/03/31 13:42:04;;;;;;;;;;;25.00;21.40;;;;;;5088551;28;19915;-73
2024/03/31 13:44:29;;;;;;;;;;;25.00;21.40;;;;;;5089792;28;19916;-73
2024/03/31 13:46:55;;;;;;;;;;;25.10;21.10;;;;;;5089852;28;19908;-73
2024/03/31 13:49:20;;;;;;;;;;;25.00;20.80;;;;;;5089652;28;19911;-72
2024/03/31 13:51:47;;;;;;;;;;;25.00;20.90;;;;;;5088695;28;19904;-74
2024/03/31 13:54:13;;;;;;;;;;;25.00;20.80;;;;;;5090014;28;20416;-74
2024/03/31 13:56:38;;;;;;;;;;;25.00;20.90;;;;;;5089629;28;19908;-74
2024/03/31 13:59:04;;;;;;;;;;;25.00;20.80;;;;;;5089806;28;20375;-74
2024/03/31 14:01:29;;;;;;;;;;;25.00;21.00;;;;;;5089666;28;19908;-74
2024/03/31 14:03:55;;;;;;;;;;;24.90;20.20;;;;;;5089783;28;20006;-73
2024/03/31 14:06:21;;;;;;;;;;;24.80;19.80;;;;;;5088457;28;19919;-74
2024/03/31 14:08:46;;;;;;;;;;;24.70;20.50;;;;;;5089815;28;19904;-74